sensor_id;sensor_type;location;lat;lon;timestamp;P1;durP1;ratioP1;P2;durP2;ratioP2
29934;SDS011;19905;53.370;-6.314;2023-04-25T00:00:49;5.20;;;2.10;;
29934;SDS011;19905;53.370;-6.314;2023-04-25T00:03:21;6.93;;;2.30;;
29934;SDS011;19905;53.370;-6.314;2023-04-25T00:05:53;5.05;;;2.10;;
29934;SDS011;19905;53.370;-6.314;2023-04-25T00:08:24;4.97;;;2.05;;
29934;SDS011;19905;53.370;-6.314;2023-04-25T00:10:53;4.55;;;2.03;;
29934;SDS011;19905;53.370;-6.314;2023-04-25T00:15:56;6.05;;;2.00;;
29934;SDS011;19905;53.370;-6.314;2023-04-25T00:18:25;4.20;;;1.85;;
29934;SDS011;19905;53.370;-6.314;2023-04-25T00:20:58;3.78;;;1.75;;
29934;SDS011;19905;53.370;-6.314;2023-04-25T00:23:28;2.92;;;1.50;;
29934;SDS011;19905;53.370;-6.314;2023-04-25T00:25:57;4.30;;;1.77;;
29934;SDS011;19905;53.370;-6.314;2023-04-25T00:28:27;6.68;;;1.80;;
29934;SDS011;19905;53.370;-6.314;2023-04-25T00:30:55;5.60;;;2.00;;
29934;SDS011;19905;53.370;-6.314;2023-04-25T00:36:14;4.35;;;1.60;;
29934;SDS011;19905;53.370;-6.314;2023-04-25T00:38:43;4.45;;;1.80;;
29934;SDS011;19905;53.370;-6.314;2023-04-25T00:41:12;3.67;;;1.77;;
29934;SDS011;19905;53.370;-6.314;2023-04-25T00:43:41;4.93;;;1.70;;
29934;SDS011;19905;53.370;-6.314;2023-04-25T00:46:12;2.83;;;1.63;;
29934;SDS011;19905;53.370;-6.314;2023-04-25T00:48:40;4.97;;;1.70;;
29934;SDS011;19905;53.370;-6.314;2023-04-25T00:51:10;4.85;;;1.65;;
29934;SDS011;19905;53.370;-6.314;2023-04-25T00:53:47;3.00;;;1.63;;
29934;SDS011;19905;53.370;-6.314;2023-04-25T00:59:00;4.00;;;1.40;;
29934;SDS011;19905;53.370;-6.314;2023-04-25T01:01:29;3.38;;;1.48;;
29934;SDS011;19905;53.370;-6.314;2023-04-25T01:04:00;4.93;;;1.60;;
29934;SDS011;19905;53.370;-6.314;2023-04-25T01:06:31;3.50;;;1.50;;
29934;SDS011;19905;53.370;-6.314;2023-04-25T01:09:01;3.58;;;1.40;;
29934;SDS011;19905;53.370;-6.314;2023-04-25T01:16:44;4.28;;;1.73;;
29934;SDS011;19905;53.370;-6.314;2023-04-25T01:19:16;5.22;;;1.80;;
29934;SDS011;19905;53.370;-6.314;2023-04-25T01:24:19;3.38;;;1.50;;
29934;SDS011;19905;53.370;-6.314;2023-04-25T01:29:24;5.72;;;2.10;;
29934;SDS011;19905;53.370;-6.314;2023-04-25T01:31:56;5.43;;;1.90;;
29934;SDS011;19905;53.370;-6.314;2023-04-25T01:34:33;4.05;;;1.40;;
29934;SDS011;19905;53.370;-6.314;2023-04-25T01:37:07;4.03;;;1.50;;
29934;SDS011;19905;53.370;-6.314;2023-04-25T01:39:35;3.25;;;1.85;;
29934;SDS011;19905;53.370;-6.314;2023-04-25T01:42:06;3.38;;;1.73;;
29934;SDS011;19905;53.370;-6.314;2023-04-25T01:44:37;3.55;;;1.67;;
29934;SDS011;19905;53.370;-6.314;2023-04-25T01:47:16;5.55;;;1.77;;
29934;SDS011;19905;53.370;-6.314;2023-04-25T01:49:45;7.30;;;2.10;;
29934;SDS011;19905;53.370;-6.314;2023-04-25T01:52:15;3.92;;;1.90;;
29934;SDS011;19905;53.370;-6.314;2023-04-25T01:54:45;4.65;;;2.05;;
29934;SDS011;19905;53.370;-6.314;2023-04-25T01:57:14;4.05;;;2.50;;
29934;SDS011;19905;53.370;-6.314;2023-04-25T01:59:43;7.10;;;3.10;;
29934;SDS011;19905;53.370;-6.314;2023-04-25T02:02:12;8.07;;;3.00;;
29934;SDS011;19905;53.370;-6.314;2023-04-25T02:04:42;6.03;;;2.70;;
29934;SDS011;19905;53.370;-6.314;2023-04-25T02:07:13;7.47;;;2.80;;
29934;SDS011;19905;53.370;-6.314;2023-04-25T02:09:44;8.77;;;2.53;;
29934;SDS011;19905;53.370;-6.314;2023-04-25T02:12:12;4.47;;;2.35;;
29934;SDS011;19905;53.370;-6.314;2023-04-25T02:14:41;4.90;;;2.42;;
29934;SDS011;19905;53.370;-6.314;2023-04-25T02:17:09;13.30;;;5.15;;
29934;SDS011;19905;53.370;-6.314;2023-04-25T02:19:41;10.65;;;4.07;;
29934;SDS011;19905;53.370;-6.314;2023-04-25T02:22:15;11.25;;;4.53;;
29934;SDS011;19905;53.370;-6.314;2023-04-25T02:24:47;11.15;;;5.32;;
29934;SDS011;19905;53.370;-6.314;2023-04-25T02:27:18;8.88;;;4.10;;
29934;SDS011;19905;53.370;-6.314;2023-04-25T02:29:48;6.30;;;3.72;;
29934;SDS011;19905;53.370;-6.314;2023-04-25T02:32:17;8.40;;;3.92;;
29934;SDS011;19905;53.370;-6.314;2023-04-25T02:34:54;8.73;;;4.03;;
29934;SDS011;19905;53.370;-6.314;2023-04-25T02:37:25;6.90;;;3.45;;
29934;SDS011;19905;53.370;-6.314;2023-04-25T02:40:02;10.35;;;3.30;;
29934;SDS011;19905;53.370;-6.314;2023-04-25T02:42:31;5.60;;;2.58;;
29934;SDS011;19905;53.370;-6.314;2023-04-25T02:45:00;6.13;;;2.50;;
29934;SDS011;19905;53.370;-6.314;2023-04-25T02:47:29;6.45;;;2.70;;
29934;SDS011;19905;53.370;-6.314;2023-04-25T02:50:00;5.40;;;2.70;;
29934;SDS011;19905;53.370;-6.314;2023-04-25T02:52:31;7.82;;;3.20;;
29934;SDS011;19905;53.370;-6.314;2023-04-25T02:57:33;6.30;;;2.78;;
29934;SDS011;19905;53.370;-6.314;2023-04-25T03:00:02;7.47;;;3.03;;
29934;SDS011;19905;53.370;-6.314;2023-04-25T03:02:33;7.57;;;2.78;;
29934;SDS011;19905;53.370;-6.314;2023-04-25T03:05:02;6.32;;;3.60;;
29934;SDS011;19905;53.370;-6.314;2023-04-25T03:07:31;7.18;;;3.45;;
29934;SDS011;19905;53.370;-6.314;2023-04-25T03:10:06;5.63;;;3.42;;
29934;SDS011;19905;53.370;-6.314;2023-04-25T03:15:09;7.50;;;3.38;;
29934;SDS011;19905;53.370;-6.314;2023-04-25T03:17:37;9.95;;;3.70;;
29934;SDS011;19905;53.370;-6.314;2023-04-25T03:20:07;7.47;;;3.83;;
29934;SDS011;19905;53.370;-6.314;2023-04-25T03:22:37;9.25;;;4.30;;
29934;SDS011;19905;53.370;-6.314;2023-04-25T03:25:10;7.57;;;3.78;;
29934;SDS011;19905;53.370;-6.314;2023-04-25T03:27:44;6.28;;;3.50;;
29934;SDS011;19905;53.370;-6.314;2023-04-25T03:30:14;6.32;;;3.78;;
29934;SDS011;19905;53.370;-6.314;2023-04-25T03:32:44;9.23;;;3.40;;
29934;SDS011;19905;53.370;-6.314;2023-04-25T03:35:13;7.82;;;3.28;;
29934;SDS011;19905;53.370;-6.314;2023-04-25T03:37:48;9.85;;;3.50;;
29934;SDS011;19905;53.370;-6.314;2023-04-25T03:40:18;11.10;;;3.30;;
29934;SDS011;19905;53.370;-6.314;2023-04-25T03:42:47;9.30;;;4.10;;
29934;SDS011;19905;53.370;-6.314;2023-04-25T03:45:15;8.05;;;2.95;;
29934;SDS011;19905;53.370;-6.314;2023-04-25T03:47:50;8.50;;;3.22;;
29934;SDS011;19905;53.370;-6.314;2023-04-25T03:50:24;8.43;;;3.50;;
29934;SDS011;19905;53.370;-6.314;2023-04-25T03:52:55;5.85;;;2.92;;
29934;SDS011;19905;53.370;-6.314;2023-04-25T03:55:26;8.27;;;3.42;;
29934;SDS011;19905;53.370;-6.314;2023-04-25T03:57:56;7.53;;;3.13;;
29934;SDS011;19905;53.370;-6.314;2023-04-25T04:00:26;8.18;;;3.58;;
29934;SDS011;19905;53.370;-6.314;2023-04-25T04:02:55;8.13;;;4.00;;
29934;SDS011;19905;53.370;-6.314;2023-04-25T04:05:27;7.13;;;3.67;;
29934;SDS011;19905;53.370;-6.314;2023-04-25T04:07:56;10.18;;;4.15;;
29934;SDS011;19905;53.370;-6.314;2023-04-25T04:10:33;10.70;;;3.92;;
29934;SDS011;19905;53.370;-6.314;2023-04-25T04:13:01;9.70;;;3.85;;
29934;SDS011;19905;53.370;-6.314;2023-04-25T04:15:29;9.02;;;4.30;;
29934;SDS011;19905;53.370;-6.314;2023-04-25T04:18:00;9.02;;;4.30;;
29934;SDS011;19905;53.370;-6.314;2023-04-25T04:20:32;8.90;;;4.22;;
29934;SDS011;19905;53.370;-6.314;2023-04-25T04:23:01;16.38;;;4.50;;
29934;SDS011;19905;53.370;-6.314;2023-04-25T04:25:37;13.75;;;4.75;;
29934;SDS011;19905;53.370;-6.314;2023-04-25T04:28:07;12.13;;;4.38;;
29934;SDS011;19905;53.370;-6.314;2023-04-25T04:30:37;9.57;;;4.22;;
29934;SDS011;19905;53.370;-6.314;2023-04-25T04:35:40;9.52;;;5.03;;
29934;SDS011;19905;53.370;-6.314;2023-04-25T04:38:10;9.77;;;5.03;;
29934;SDS011;19905;53.370;-6.314;2023-04-25T04:40:40;10.75;;;4.45;;
29934;SDS011;19905;53.370;-6.314;2023-04-25T04:43:10;7.80;;;5.30;;
29934;SDS011;19905;53.370;-6.314;2023-04-25T04:45:39;11.38;;;5.47;;
29934;SDS011;19905;53.370;-6.314;2023-04-25T04:50:42;11.73;;;5.30;;
29934;SDS011;19905;53.370;-6.314;2023-04-25T04:53:18;10.35;;;5.55;;
29934;SDS011;19905;53.370;-6.314;2023-04-25T04:55:48;9.85;;;5.07;;
29934;SDS011;19905;53.370;-6.314;2023-04-25T04:58:17;9.20;;;4.80;;
29934;SDS011;19905;53.370;-6.314;2023-04-25T05:00:46;10.77;;;5.38;;
29934;SDS011;19905;53.370;-6.314;2023-04-25T05:03:16;12.93;;;5.85;;
29934;SDS011;19905;53.370;-6.314;2023-04-25T05:05:46;10.07;;;5.72;;
29934;SDS011;19905;53.370;-6.314;2023-04-25T05:10:47;13.68;;;5.68;;
29934;SDS011;19905;53.370;-6.314;2023-04-25T05:13:17;13.15;;;5.47;;
29934;SDS011;19905;53.370;-6.314;2023-04-25T05:15:45;10.05;;;5.22;;
29934;SDS011;19905;53.370;-6.314;2023-04-25T05:18:27;10.73;;;5.68;;
29934;SDS011;19905;53.370;-6.314;2023-04-25T05:20:56;15.90;;;5.78;;
29934;SDS011;19905;53.370;-6.314;2023-04-25T05:23:26;15.02;;;5.43;;
29934;SDS011;19905;53.370;-6.314;2023-04-25T05:26:06;10.95;;;5.53;;
29934;SDS011;19905;53.370;-6.314;2023-04-25T05:28:40;10.55;;;5.13;;
29934;SDS011;19905;53.370;-6.314;2023-04-25T05:31:11;15.70;;;5.72;;
29934;SDS011;19905;53.370;-6.314;2023-04-25T05:33:40;16.30;;;6.70;;
29934;SDS011;19905;53.370;-6.314;2023-04-25T05:36:08;13.82;;;6.28;;
29934;SDS011;19905;53.370;-6.314;2023-04-25T05:38:42;10.88;;;6.57;;
29934;SDS011;19905;53.370;-6.314;2023-04-25T05:41:14;14.25;;;6.68;;
29934;SDS011;19905;53.370;-6.314;2023-04-25T05:43:43;12.98;;;6.53;;
29934;SDS011;19905;53.370;-6.314;2023-04-25T05:46:15;11.27;;;6.00;;
29934;SDS011;19905;53.370;-6.314;2023-04-25T05:48:45;13.18;;;6.07;;
29934;SDS011;19905;53.370;-6.314;2023-04-25T05:51:15;13.23;;;5.60;;
29934;SDS011;19905;53.370;-6.314;2023-04-25T05:53:44;14.70;;;5.80;;
29934;SDS011;19905;53.370;-6.314;2023-04-25T05:56:15;9.93;;;5.15;;
29934;SDS011;19905;53.370;-6.314;2023-04-25T05:58:43;10.00;;;5.25;;
29934;SDS011;19905;53.370;-6.314;2023-04-25T06:01:11;12.07;;;5.15;;
29934;SDS011;19905;53.370;-6.314;2023-04-25T06:03:41;10.93;;;4.97;;
29934;SDS011;19905;53.370;-6.314;2023-04-25T06:06:12;13.13;;;5.82;;
29934;SDS011;19905;53.370;-6.314;2023-04-25T06:08:42;14.23;;;4.57;;
29934;SDS011;19905;53.370;-6.314;2023-04-25T06:11:11;9.73;;;4.53;;
29934;SDS011;19905;53.370;-6.314;2023-04-25T06:13:41;14.40;;;4.88;;
29934;SDS011;19905;53.370;-6.314;2023-04-25T06:16:10;9.88;;;4.55;;
29934;SDS011;19905;53.370;-6.314;2023-04-25T06:18:38;11.88;;;4.65;;
29934;SDS011;19905;53.370;-6.314;2023-04-25T06:21:07;13.00;;;4.80;;
29934;SDS011;19905;53.370;-6.314;2023-04-25T06:23:36;9.43;;;4.93;;
29934;SDS011;19905;53.370;-6.314;2023-04-25T06:26:05;11.02;;;4.72;;
29934;SDS011;19905;53.370;-6.314;2023-04-25T06:28:34;11.57;;;4.47;;
29934;SDS011;19905;53.370;-6.314;2023-04-25T06:31:04;10.73;;;4.82;;
29934;SDS011;19905;53.370;-6.314;2023-04-25T06:33:32;13.90;;;4.35;;
29934;SDS011;19905;53.370;-6.314;2023-04-25T06:36:02;11.60;;;4.78;;
29934;SDS011;19905;53.370;-6.314;2023-04-25T06:38:31;14.88;;;4.82;;
29934;SDS011;19905;53.370;-6.314;2023-04-25T06:41:01;11.30;;;4.72;;
29934;SDS011;19905;53.370;-6.314;2023-04-25T06:43:30;15.68;;;4.60;;
29934;SDS011;19905;53.370;-6.314;2023-04-25T06:46:00;12.70;;;4.50;;
29934;SDS011;19905;53.370;-6.314;2023-04-25T06:48:30;12.52;;;4.90;;
29934;SDS011;19905;53.370;-6.314;2023-04-25T06:50:58;11.30;;;4.50;;
29934;SDS011;19905;53.370;-6.314;2023-04-25T06:53:28;10.55;;;4.53;;
29934;SDS011;19905;53.370;-6.314;2023-04-25T06:55:56;16.00;;;5.88;;
29934;SDS011;19905;53.370;-6.314;2023-04-25T06:58:25;16.10;;;4.68;;
29934;SDS011;19905;53.370;-6.314;2023-04-25T07:00:54;17.63;;;6.22;;
29934;SDS011;19905;53.370;-6.314;2023-04-25T07:03:23;15.70;;;5.45;;
29934;SDS011;19905;53.370;-6.314;2023-04-25T07:05:53;11.05;;;4.47;;
29934;SDS011;19905;53.370;-6.314;2023-04-25T07:08:22;14.27;;;4.30;;
29934;SDS011;19905;53.370;-6.314;2023-04-25T07:10:50;14.48;;;5.13;;
29934;SDS011;19905;53.370;-6.314;2023-04-25T07:13:19;14.82;;;5.00;;
29934;SDS011;19905;53.370;-6.314;2023-04-25T07:15:48;10.15;;;4.10;;
29934;SDS011;19905;53.370;-6.314;2023-04-25T07:18:16;12.63;;;3.72;;
29934;SDS011;19905;53.370;-6.314;2023-04-25T07:20:45;12.23;;;4.00;;
29934;SDS011;19905;53.370;-6.314;2023-04-25T07:23:15;11.27;;;4.13;;
29934;SDS011;19905;53.370;-6.314;2023-04-25T07:25:44;12.75;;;3.97;;
29934;SDS011;19905;53.370;-6.314;2023-04-25T07:28:13;16.30;;;4.60;;
29934;SDS011;19905;53.370;-6.314;2023-04-25T07:30:44;14.02;;;4.70;;
29934;SDS011;19905;53.370;-6.314;2023-04-25T07:33:13;14.60;;;4.63;;
29934;SDS011;19905;53.370;-6.314;2023-04-25T07:35:41;13.93;;;4.70;;
29934;SDS011;19905;53.370;-6.314;2023-04-25T07:38:10;17.40;;;4.70;;
29934;SDS011;19905;53.370;-6.314;2023-04-25T07:40:40;16.13;;;4.40;;
29934;SDS011;19905;53.370;-6.314;2023-04-25T07:43:08;15.43;;;4.30;;
29934;SDS011;19905;53.370;-6.314;2023-04-25T07:45:39;11.65;;;4.22;;
29934;SDS011;19905;53.370;-6.314;2023-04-25T07:48:09;17.20;;;3.70;;
29934;SDS011;19905;53.370;-6.314;2023-04-25T07:50:38;15.10;;;4.45;;
29934;SDS011;19905;53.370;-6.314;2023-04-25T07:53:06;16.52;;;4.65;;
29934;SDS011;19905;53.370;-6.314;2023-04-25T07:55:35;10.25;;;4.85;;
29934;SDS011;19905;53.370;-6.314;2023-04-25T07:58:08;14.82;;;4.90;;
29934;SDS011;19905;53.370;-6.314;2023-04-25T08:00:38;15.50;;;4.97;;
29934;SDS011;19905;53.370;-6.314;2023-04-25T08:03:06;16.02;;;5.32;;
29934;SDS011;19905;53.370;-6.314;2023-04-25T08:05:35;24.33;;;6.03;;
29934;SDS011;19905;53.370;-6.314;2023-04-25T08:08:04;18.67;;;5.93;;
29934;SDS011;19905;53.370;-6.314;2023-04-25T08:10:34;21.27;;;5.85;;
29934;SDS011;19905;53.370;-6.314;2023-04-25T08:13:02;16.25;;;5.07;;
29934;SDS011;19905;53.370;-6.314;2023-04-25T08:15:33;16.52;;;5.78;;
29934;SDS011;19905;53.370;-6.314;2023-04-25T08:18:01;15.45;;;5.30;;
29934;SDS011;19905;53.370;-6.314;2023-04-25T08:20:30;17.80;;;5.50;;
29934;SDS011;19905;53.370;-6.314;2023-04-25T08:22:58;20.65;;;6.50;;
29934;SDS011;19905;53.370;-6.314;2023-04-25T08:25:28;19.05;;;6.03;;
29934;SDS011;19905;53.370;-6.314;2023-04-25T08:27:56;15.73;;;5.53;;
29934;SDS011;19905;53.370;-6.314;2023-04-25T08:30:26;17.35;;;5.70;;
29934;SDS011;19905;53.370;-6.314;2023-04-25T08:32:56;13.65;;;5.10;;
29934;SDS011;19905;53.370;-6.314;2023-04-25T08:35:25;16.75;;;5.90;;
29934;SDS011;19905;53.370;-6.314;2023-04-25T08:37:56;11.93;;;5.07;;
29934;SDS011;19905;53.370;-6.314;2023-04-25T08:40:26;16.20;;;5.15;;
29934;SDS011;19905;53.370;-6.314;2023-04-25T08:42:57;16.67;;;5.18;;
29934;SDS011;19905;53.370;-6.314;2023-04-25T08:45:26;14.88;;;4.60;;
29934;SDS011;19905;53.370;-6.314;2023-04-25T08:48:00;17.42;;;4.80;;
29934;SDS011;19905;53.370;-6.314;2023-04-25T08:50:30;17.20;;;4.72;;
29934;SDS011;19905;53.370;-6.314;2023-04-25T08:52:59;11.20;;;4.13;;
29934;SDS011;19905;53.370;-6.314;2023-04-25T08:55:33;11.90;;;4.15;;
29934;SDS011;19905;53.370;-6.314;2023-04-25T08:58:02;15.65;;;4.90;;
29934;SDS011;19905;53.370;-6.314;2023-04-25T09:00:32;17.65;;;4.65;;
29934;SDS011;19905;53.370;-6.314;2023-04-25T09:03:02;10.38;;;4.38;;
29934;SDS011;19905;53.370;-6.314;2023-04-25T09:05:32;8.95;;;2.83;;
29934;SDS011;19905;53.370;-6.314;2023-04-25T09:08:02;10.73;;;2.85;;
29934;SDS011;19905;53.370;-6.314;2023-04-25T09:10:30;10.95;;;3.40;;
29934;SDS011;19905;53.370;-6.314;2023-04-25T09:13:02;14.82;;;5.78;;
29934;SDS011;19905;53.370;-6.314;2023-04-25T09:15:32;14.57;;;5.72;;
29934;SDS011;19905;53.370;-6.314;2023-04-25T09:18:02;12.25;;;5.88;;
29934;SDS011;19905;53.370;-6.314;2023-04-25T09:20:31;17.50;;;6.00;;
29934;SDS011;19905;53.370;-6.314;2023-04-25T09:23:25;12.10;;;6.30;;
29934;SDS011;19905;53.370;-6.314;2023-04-25T09:25:55;12.10;;;5.95;;
29934;SDS011;19905;53.370;-6.314;2023-04-25T09:28:24;10.57;;;4.75;;
29934;SDS011;19905;53.370;-6.314;2023-04-25T09:30:56;10.68;;;3.33;;
29934;SDS011;19905;53.370;-6.314;2023-04-25T09:33:30;7.10;;;1.63;;
29934;SDS011;19905;53.370;-6.314;2023-04-25T09:36:01;7.07;;;1.80;;
29934;SDS011;19905;53.370;-6.314;2023-04-25T09:38:31;5.65;;;1.92;;
29934;SDS011;19905;53.370;-6.314;2023-04-25T09:41:08;7.43;;;2.00;;
29934;SDS011;19905;53.370;-6.314;2023-04-25T09:43:38;4.15;;;1.50;;
29934;SDS011;19905;53.370;-6.314;2023-04-25T09:46:08;7.05;;;2.10;;
29934;SDS011;19905;53.370;-6.314;2023-04-25T09:48:39;7.78;;;2.10;;
29934;SDS011;19905;53.370;-6.314;2023-04-25T09:51:08;6.00;;;1.80;;
29934;SDS011;19905;53.370;-6.314;2023-04-25T09:53:38;8.35;;;2.13;;
29934;SDS011;19905;53.370;-6.314;2023-04-25T09:56:09;11.18;;;2.22;;
29934;SDS011;19905;53.370;-6.314;2023-04-25T09:58:40;8.25;;;2.05;;
29934;SDS011;19905;53.370;-6.314;2023-04-25T10:01:09;8.32;;;2.28;;
29934;SDS011;19905;53.370;-6.314;2023-04-25T10:03:41;7.97;;;2.03;;
29934;SDS011;19905;53.370;-6.314;2023-04-25T10:06:12;4.85;;;2.00;;
29934;SDS011;19905;53.370;-6.314;2023-04-25T10:08:49;6.88;;;2.20;;
29934;SDS011;19905;53.370;-6.314;2023-04-25T10:11:22;10.35;;;2.20;;
29934;SDS011;19905;53.370;-6.314;2023-04-25T10:13:53;7.95;;;2.10;;
29934;SDS011;19905;53.370;-6.314;2023-04-25T10:16:24;7.70;;;2.00;;
29934;SDS011;19905;53.370;-6.314;2023-04-25T10:18:55;7.57;;;2.17;;
29934;SDS011;19905;53.370;-6.314;2023-04-25T10:21:24;8.85;;;2.63;;
29934;SDS011;19905;53.370;-6.314;2023-04-25T10:23:57;9.35;;;2.55;;
29934;SDS011;19905;53.370;-6.314;2023-04-25T10:26:26;6.57;;;2.10;;
29934;SDS011;19905;53.370;-6.314;2023-04-25T10:28:57;5.43;;;1.92;;
29934;SDS011;19905;53.370;-6.314;2023-04-25T10:31:26;8.25;;;1.85;;
29934;SDS011;19905;53.370;-6.314;2023-04-25T10:33:57;7.25;;;1.45;;
29934;SDS011;19905;53.370;-6.314;2023-04-25T10:36:27;8.48;;;1.80;;
29934;SDS011;19905;53.370;-6.314;2023-04-25T10:39:03;6.50;;;2.05;;
29934;SDS011;19905;53.370;-6.314;2023-04-25T10:41:45;7.43;;;1.90;;
29934;SDS011;19905;53.370;-6.314;2023-04-25T10:44:15;5.43;;;1.55;;
29934;SDS011;19905;53.370;-6.314;2023-04-25T10:46:44;8.60;;;1.60;;
29934;SDS011;19905;53.370;-6.314;2023-04-25T10:54:54;4.00;;;1.30;;
29934;SDS011;19905;53.370;-6.314;2023-04-25T10:57:30;7.07;;;1.50;;
29934;SDS011;19905;53.370;-6.314;2023-04-25T11:00:05;6.47;;;1.80;;
29934;SDS011;19905;53.370;-6.314;2023-04-25T11:02:40;5.55;;;1.83;;
29934;SDS011;19905;53.370;-6.314;2023-04-25T11:05:11;7.38;;;1.88;;
29934;SDS011;19905;53.370;-6.314;2023-04-25T11:07:49;5.00;;;1.60;;
29934;SDS011;19905;53.370;-6.314;2023-04-25T11:10:33;9.10;;;1.80;;
29934;SDS011;19905;53.370;-6.314;2023-04-25T11:13:03;6.53;;;2.10;;
29934;SDS011;19905;53.370;-6.314;2023-04-25T11:15:32;7.05;;;1.30;;
29934;SDS011;19905;53.370;-6.314;2023-04-25T11:18:00;7.28;;;1.83;;
29934;SDS011;19905;53.370;-6.314;2023-04-25T11:20:31;7.95;;;2.13;;
29934;SDS011;19905;53.370;-6.314;2023-04-25T11:23:00;5.53;;;1.50;;
29934;SDS011;19905;53.370;-6.314;2023-04-25T11:25:29;6.80;;;1.80;;
29934;SDS011;19905;53.370;-6.314;2023-04-25T11:28:00;7.13;;;1.83;;
29934;SDS011;19905;53.370;-6.314;2023-04-25T11:30:29;6.18;;;1.92;;
29934;SDS011;19905;53.370;-6.314;2023-04-25T11:32:58;6.55;;;2.00;;
29934;SDS011;19905;53.370;-6.314;2023-04-25T11:35:31;7.45;;;1.90;;
29934;SDS011;19905;53.370;-6.314;2023-04-25T11:38:00;5.15;;;1.70;;
29934;SDS011;19905;53.370;-6.314;2023-04-25T11:40:30;4.65;;;1.70;;
29934;SDS011;19905;53.370;-6.314;2023-04-25T11:42:59;7.00;;;1.77;;
29934;SDS011;19905;53.370;-6.314;2023-04-25T11:45:28;5.63;;;1.85;;
29934;SDS011;19905;53.370;-6.314;2023-04-25T11:47:57;7.97;;;1.80;;
29934;SDS011;19905;53.370;-6.314;2023-04-25T11:50:27;6.20;;;2.05;;
29934;SDS011;19905;53.370;-6.314;2023-04-25T11:52:57;5.20;;;2.00;;
29934;SDS011;19905;53.370;-6.314;2023-04-25T11:55:26;10.75;;;2.10;;
29934;SDS011;19905;53.370;-6.314;2023-04-25T11:57:59;6.80;;;2.17;;
29934;SDS011;19905;53.370;-6.314;2023-04-25T12:00:29;7.63;;;2.05;;
29934;SDS011;19905;53.370;-6.314;2023-04-25T12:02:58;7.68;;;1.80;;
29934;SDS011;19905;53.370;-6.314;2023-04-25T12:05:28;8.52;;;1.98;;
29934;SDS011;19905;53.370;-6.314;2023-04-25T12:08:12;6.15;;;1.67;;
29934;SDS011;19905;53.370;-6.314;2023-04-25T12:10:42;7.78;;;2.20;;
29934;SDS011;19905;53.370;-6.314;2023-04-25T12:13:18;5.72;;;2.00;;
29934;SDS011;19905;53.370;-6.314;2023-04-25T12:15:48;6.55;;;1.98;;
29934;SDS011;19905;53.370;-6.314;2023-04-25T12:18:22;8.50;;;2.53;;
29934;SDS011;19905;53.370;-6.314;2023-04-25T12:20:54;9.20;;;2.00;;
29934;SDS011;19905;53.370;-6.314;2023-04-25T12:23:27;6.88;;;2.40;;
29934;SDS011;19905;53.370;-6.314;2023-04-25T12:25:57;6.25;;;2.20;;
29934;SDS011;19905;53.370;-6.314;2023-04-25T12:28:25;6.53;;;2.22;;
29934;SDS011;19905;53.370;-6.314;2023-04-25T12:30:55;8.60;;;2.80;;
29934;SDS011;19905;53.370;-6.314;2023-04-25T12:33:26;6.85;;;2.40;;
29934;SDS011;19905;53.370;-6.314;2023-04-25T12:35:55;9.30;;;2.60;;
29934;SDS011;19905;53.370;-6.314;2023-04-25T12:38:27;6.95;;;2.10;;
29934;SDS011;19905;53.370;-6.314;2023-04-25T12:40:57;6.32;;;2.17;;
29934;SDS011;19905;53.370;-6.314;2023-04-25T12:43:26;8.13;;;2.38;;
29934;SDS011;19905;53.370;-6.314;2023-04-25T12:45:55;8.65;;;2.10;;
29934;SDS011;19905;53.370;-6.314;2023-04-25T12:48:24;9.68;;;2.38;;
29934;SDS011;19905;53.370;-6.314;2023-04-25T12:50:53;6.28;;;1.90;;
29934;SDS011;19905;53.370;-6.314;2023-04-25T12:53:22;8.20;;;2.22;;
29934;SDS011;19905;53.370;-6.314;2023-04-25T12:55:53;8.38;;;1.85;;
29934;SDS011;19905;53.370;-6.314;2023-04-25T12:58:22;8.40;;;2.03;;
29934;SDS011;19905;53.370;-6.314;2023-04-25T13:00:51;9.43;;;2.25;;
29934;SDS011;19905;53.370;-6.314;2023-04-25T13:03:20;8.25;;;2.00;;
29934;SDS011;19905;53.370;-6.314;2023-04-25T13:05:50;6.45;;;2.15;;
29934;SDS011;19905;53.370;-6.314;2023-04-25T13:08:19;7.50;;;2.13;;
29934;SDS011;19905;53.370;-6.314;2023-04-25T13:10:47;11.77;;;2.17;;
29934;SDS011;19905;53.370;-6.314;2023-04-25T13:13:17;10.30;;;2.20;;
29934;SDS011;19905;53.370;-6.314;2023-04-25T13:15:46;8.82;;;1.95;;
29934;SDS011;19905;53.370;-6.314;2023-04-25T13:18:15;7.07;;;2.00;;
29934;SDS011;19905;53.370;-6.314;2023-04-25T13:20:45;6.82;;;1.92;;
29934;SDS011;19905;53.370;-6.314;2023-04-25T13:23:14;7.25;;;2.05;;
29934;SDS011;19905;53.370;-6.314;2023-04-25T13:25:43;7.82;;;2.45;;
29934;SDS011;19905;53.370;-6.314;2023-04-25T13:28:11;9.88;;;2.78;;
29934;SDS011;19905;53.370;-6.314;2023-04-25T13:30:43;7.55;;;2.28;;
29934;SDS011;19905;53.370;-6.314;2023-04-25T13:33:14;7.50;;;2.38;;
29934;SDS011;19905;53.370;-6.314;2023-04-25T13:35:43;11.60;;;3.15;;
29934;SDS011;19905;53.370;-6.314;2023-04-25T13:38:13;10.48;;;3.13;;
29934;SDS011;19905;53.370;-6.314;2023-04-25T13:40:43;9.95;;;3.30;;
29934;SDS011;19905;53.370;-6.314;2023-04-25T13:43:17;12.55;;;3.13;;
29934;SDS011;19905;53.370;-6.314;2023-04-25T13:45:50;13.98;;;3.42;;
29934;SDS011;19905;53.370;-6.314;2023-04-25T13:48:19;12.73;;;3.53;;
29934;SDS011;19905;53.370;-6.314;2023-04-25T13:50:49;9.20;;;3.20;;
29934;SDS011;19905;53.370;-6.314;2023-04-25T13:53:18;11.50;;;3.60;;
29934;SDS011;19905;53.370;-6.314;2023-04-25T13:55:48;10.02;;;3.28;;
29934;SDS011;19905;53.370;-6.314;2023-04-25T13:58:17;13.95;;;3.50;;
29934;SDS011;19905;53.370;-6.314;2023-04-25T14:00:47;17.33;;;3.38;;
29934;SDS011;19905;53.370;-6.314;2023-04-25T14:03:17;13.70;;;3.67;;
29934;SDS011;19905;53.370;-6.314;2023-04-25T14:05:45;15.25;;;3.40;;
29934;SDS011;19905;53.370;-6.314;2023-04-25T14:08:14;12.88;;;3.42;;
29934;SDS011;19905;53.370;-6.314;2023-04-25T14:10:43;17.20;;;3.47;;
29934;SDS011;19905;53.370;-6.314;2023-04-25T14:13:11;16.52;;;3.72;;
29934;SDS011;19905;53.370;-6.314;2023-04-25T14:15:40;15.25;;;3.67;;
29934;SDS011;19905;53.370;-6.314;2023-04-25T14:18:09;15.57;;;3.47;;
29934;SDS011;19905;53.370;-6.314;2023-04-25T14:20:39;11.48;;;2.80;;
29934;SDS011;19905;53.370;-6.314;2023-04-25T14:23:07;11.35;;;3.10;;
29934;SDS011;19905;53.370;-6.314;2023-04-25T14:25:36;11.68;;;3.10;;
29934;SDS011;19905;53.370;-6.314;2023-04-25T14:28:05;11.35;;;3.03;;
29934;SDS011;19905;53.370;-6.314;2023-04-25T14:30:33;16.60;;;3.00;;
29934;SDS011;19905;53.370;-6.314;2023-04-25T14:33:02;9.63;;;2.80;;
29934;SDS011;19905;53.370;-6.314;2023-04-25T14:35:32;9.38;;;2.78;;
29934;SDS011;19905;53.370;-6.314;2023-04-25T14:38:02;15.02;;;2.97;;
29934;SDS011;19905;53.370;-6.314;2023-04-25T14:40:32;10.00;;;2.42;;
29934;SDS011;19905;53.370;-6.314;2023-04-25T14:43:00;8.40;;;2.00;;
29934;SDS011;19905;53.370;-6.314;2023-04-25T14:45:29;10.77;;;2.60;;
29934;SDS011;19905;53.370;-6.314;2023-04-25T14:47:58;12.38;;;2.90;;
29934;SDS011;19905;53.370;-6.314;2023-04-25T14:50:27;11.02;;;2.47;;
29934;SDS011;19905;53.370;-6.314;2023-04-25T14:52:55;13.98;;;2.60;;
29934;SDS011;19905;53.370;-6.314;2023-04-25T14:55:28;9.95;;;2.45;;
29934;SDS011;19905;53.370;-6.314;2023-04-25T14:57:57;9.05;;;2.25;;
29934;SDS011;19905;53.370;-6.314;2023-04-25T15:00:26;11.98;;;2.63;;
29934;SDS011;19905;53.370;-6.314;2023-04-25T15:02:55;7.93;;;2.20;;
29934;SDS011;19905;53.370;-6.314;2023-04-25T15:05:24;8.85;;;2.40;;
29934;SDS011;19905;53.370;-6.314;2023-04-25T15:07:53;7.78;;;1.85;;
29934;SDS011;19905;53.370;-6.314;2023-04-25T15:10:22;12.35;;;2.53;;
29934;SDS011;19905;53.370;-6.314;2023-04-25T15:12:53;9.75;;;2.33;;
29934;SDS011;19905;53.370;-6.314;2023-04-25T15:15:22;9.98;;;2.30;;
29934;SDS011;19905;53.370;-6.314;2023-04-25T15:17:52;7.95;;;2.13;;
29934;SDS011;19905;53.370;-6.314;2023-04-25T15:20:24;13.88;;;2.60;;
29934;SDS011;19905;53.370;-6.314;2023-04-25T15:22:54;10.90;;;2.38;;